createdAt,value
2019-01-18T00:00:59.328Z,846.63
2019-01-18T00:01:59.314Z,846.63
2019-01-18T00:02:59.323Z,846.58
2019-01-18T00:03:59.291Z,846.63
2019-01-18T00:04:59.285Z,846.62
2019-01-18T00:05:59.309Z,846.59
2019-01-18T00:06:59.266Z,846.63
2019-01-18T00:07:59.249Z,846.71
2019-01-18T00:08:59.247Z,846.70
2019-01-18T00:09:59.242Z,846.77
2019-01-18T00:10:59.221Z,846.78
2019-01-18T00:11:59.253Z,846.75
2019-01-18T00:12:59.201Z,846.72
2019-01-18T00:13:59.192Z,846.76
2019-01-18T00:14:59.183Z,846.76
2019-01-18T00:15:59.172Z,846.72
2019-01-18T00:16:59.154Z,846.76
2019-01-18T00:17:59.177Z,846.74
2019-01-18T00:18:59.137Z,846.75
2019-01-18T00:19:59.127Z,846.80
2019-01-18T00:20:59.126Z,846.81
2019-01-18T00:21:59.138Z,846.82
2019-01-18T00:22:59.105Z,846.81
2019-01-18T00:23:59.118Z,846.84
2019-01-18T00:24:59.076Z,846.80
2019-01-18T00:25:59.058Z,846.83
2019-01-18T00:26:59.060Z,846.87
2019-01-18T00:27:59.051Z,846.82
2019-01-18T00:28:59.035Z,846.81
2019-01-18T00:29:59.059Z,846.78
2019-01-18T00:30:59.017Z,846.78
2019-01-18T00:31:59.043Z,846.78
2019-01-18T00:32:59.242Z,846.79
2019-01-18T00:33:58.986Z,846.70
2019-01-18T00:34:58.968Z,846.75
2019-01-18T00:35:58.955Z,846.72
2019-01-18T00:36:58.990Z,846.71
2019-01-18T00:37:58.947Z,846.68
2019-01-18T00:38:58.927Z,846.71
2019-01-18T00:39:58.926Z,846.69
2019-01-18T00:40:58.903Z,846.74
2019-01-18T00:41:58.891Z,846.69
2019-01-18T00:42:58.916Z,846.69
2019-01-18T00:43:58.908Z,846.70
2019-01-18T00:44:58.862Z,846.71
2019-01-18T00:45:58.860Z,846.72
2019-01-18T00:46:58.839Z,846.72
2019-01-18T00:47:58.828Z,846.67
2019-01-18T00:48:58.818Z,846.68
2019-01-18T00:49:58.849Z,846.69
2019-01-18T00:50:58.795Z,846.69
2019-01-18T00:51:58.802Z,846.74
2019-01-18T00:52:58.783Z,846.75
2019-01-18T00:53:58.772Z,846.69
2019-01-18T00:54:58.757Z,846.79
2019-01-18T00:55:58.778Z,846.78
2019-01-18T00:56:58.733Z,846.80
2019-01-18T00:57:58.761Z,846.84
2019-01-18T00:58:58.712Z,846.82
2019-01-18T00:59:58.704Z,846.83
2019-01-18T01:00:58.699Z,846.85
2019-01-18T01:01:58.686Z,846.83
2019-01-18T01:02:58.675Z,846.91
2019-01-18T01:03:58.702Z,846.90
2019-01-18T01:04:58.659Z,846.93
2019-01-18T01:05:58.640Z,846.93
2019-01-18T01:06:58.625Z,846.95
2019-01-18T01:07:58.623Z,846.98
2019-01-18T01:08:58.612Z,846.97
2019-01-18T01:09:58.645Z,846.97
2019-01-18T01:10:58.587Z,846.96
2019-01-18T01:11:58.580Z,846.97
2019-01-18T01:12:58.572Z,847.00
2019-01-18T01:13:58.559Z,846.97
2019-01-18T01:14:58.556Z,847.01
2019-01-18T01:15:58.584Z,846.93
2019-01-18T01:16:58.550Z,846.92
2019-01-18T01:17:58.529Z,846.88
2019-01-18T01:18:58.506Z,846.95
2019-01-18T01:19:58.501Z,846.96
2019-01-18T01:20:58.500Z,846.90
2019-01-18T01:21:58.506Z,846.92
2019-01-18T01:22:58.474Z,846.96
2019-01-18T01:23:58.444Z,846.97
2019-01-18T01:24:58.444Z,846.97
2019-01-18T01:25:58.439Z,846.96
2019-01-18T01:26:58.413Z,846.94
2019-01-18T01:27:58.440Z,846.95
2019-01-18T01:28:58.395Z,846.93
2019-01-18T01:29:58.383Z,846.95
2019-01-18T01:30:58.380Z,847.04
2019-01-18T01:31:58.366Z,847.02
2019-01-18T01:32:58.356Z,847.03
2019-01-18T01:33:58.402Z,847.06
2019-01-18T01:34:58.340Z,846.99
2019-01-18T01:35:58.326Z,847.08
2019-01-18T01:36:58.318Z,847.10
2019-01-18T01:37:58.303Z,847.08
2019-01-18T01:38:58.334Z,847.12
2019-01-18T01:39:58.328Z,847.13
2019-01-18T01:40:58.266Z,847.18
2019-01-18T01:41:58.259Z,847.16
2019-01-18T01:42:58.257Z,847.19
2019-01-18T01:43:58.248Z,847.23
2019-01-18T01:44:58.228Z,847.26
2019-01-18T01:45:58.255Z,847.24
2019-01-18T01:46:58.205Z,847.27
2019-01-18T01:47:58.195Z,847.23
2019-01-18T01:48:58.199Z,847.23
2019-01-18T01:49:58.176Z,847.18
2019-01-18T01:50:58.165Z,847.20
2019-01-18T01:51:58.192Z,847.15
2019-01-18T01:52:58.143Z,847.17
2019-01-18T01:53:58.146Z,847.16
2019-01-18T01:54:58.136Z,847.14
2019-01-18T01:55:58.111Z,847.17
2019-01-18T01:56:58.103Z,847.17
2019-01-18T01:57:58.132Z,847.16
2019-01-18T01:58:58.084Z,847.12
2019-01-18T01:59:58.070Z,847.19
2019-01-18T02:00:58.071Z,847.20
2019-01-18T02:01:58.102Z,847.19
2019-01-18T02:02:58.044Z,847.18
2019-01-18T02:03:58.031Z,847.18
2019-01-18T02:04:58.022Z,847.25
2019-01-18T02:05:58.010Z,847.17
2019-01-18T02:06:58.001Z,847.20
2019-01-18T02:07:58.038Z,847.17
2019-01-18T02:08:57.976Z,847.18
2019-01-18T02:09:57.965Z,847.14
2019-01-18T02:10:57.955Z,847.19
2019-01-18T02:11:57.945Z,847.12
2019-01-18T02:12:57.941Z,847.10
2019-01-18T02:13:57.979Z,847.07
2019-01-18T02:14:57.916Z,847.07
2019-01-18T02:15:57.904Z,847.06
2019-01-18T02:16:57.894Z,847.06
2019-01-18T02:17:57.883Z,847.13
2019-01-18T02:18:57.876Z,847.11
2019-01-18T02:19:57.915Z,847.12
2019-01-18T02:20:57.859Z,847.15
2019-01-18T02:21:57.848Z,847.16
2019-01-18T02:22:57.838Z,847.16
2019-01-18T02:23:57.829Z,847.15
2019-01-18T02:24:57.831Z,847.07
2019-01-18T02:25:57.846Z,847.02
2019-01-18T02:26:57.804Z,847.04
2019-01-18T02:27:57.786Z,846.99
2019-01-18T02:28:57.789Z,846.97
2019-01-18T02:29:57.789Z,846.95
2019-01-18T02:30:57.755Z,846.93
2019-01-18T02:31:57.801Z,846.96
2019-01-18T02:32:57.746Z,846.95
2019-01-18T02:33:57.751Z,847.00
2019-01-18T02:34:57.719Z,847.00
2019-01-18T02:35:57.702Z,847.02
2019-01-18T02:36:57.693Z,846.98
2019-01-18T02:37:57.723Z,846.95
2019-01-18T02:38:57.668Z,846.95
2019-01-18T02:39:57.656Z,846.93
2019-01-18T02:40:57.650Z,846.90
2019-01-18T02:41:57.646Z,846.82
2019-01-18T02:42:57.624Z,846.85
2019-01-18T02:43:57.654Z,846.89
2019-01-18T02:44:57.608Z,846.89
2019-01-18T02:45:57.593Z,846.87
2019-01-18T02:46:57.581Z,846.85
2019-01-18T02:47:57.577Z,846.89
2019-01-18T02:48:57.557Z,846.89
2019-01-18T02:49:57.585Z,846.83
2019-01-18T02:50:57.539Z,846.79
2019-01-18T02:51:57.527Z,846.79
2019-01-18T02:52:57.523Z,846.90
2019-01-18T02:53:57.509Z,846.85
2019-01-18T02:54:57.498Z,846.91
2019-01-18T02:55:57.522Z,846.93
2019-01-18T02:56:57.473Z,846.94
2019-01-18T02:57:57.467Z,846.90
2019-01-18T02:58:57.451Z,846.92
2019-01-18T03:00:04.409Z,846.91
2019-01-18T03:00:58.452Z,846.94
2019-01-18T03:01:57.459Z,846.94
2019-01-18T03:02:57.407Z,846.97
2019-01-18T03:03:57.400Z,847.02
2019-01-18T03:04:57.389Z,847.01
2019-01-18T03:05:57.377Z,846.99
2019-01-18T03:06:57.382Z,847.03
2019-01-18T03:07:57.394Z,847.02
2019-01-18T03:08:57.351Z,846.98
2019-01-18T03:09:57.337Z,846.97
2019-01-18T03:10:57.326Z,846.94
2019-01-18T03:11:57.315Z,846.93
2019-01-18T03:12:57.308Z,846.99
2019-01-18T03:13:57.339Z,847.00
2019-01-18T03:14:57.286Z,846.92
2019-01-18T03:15:57.272Z,846.92
2019-01-18T03:16:57.262Z,846.90
2019-01-18T03:17:57.253Z,846.94
2019-01-18T03:18:57.243Z,846.94
2019-01-18T03:19:57.279Z,846.90
2019-01-18T03:20:57.231Z,846.90
2019-01-18T03:21:57.212Z,846.85
2019-01-18T03:22:57.201Z,846.90
2019-01-18T03:23:57.188Z,846.87
2019-01-18T03:24:57.174Z,846.82
2019-01-18T03:25:57.204Z,846.83
2019-01-18T03:26:57.155Z,846.80
2019-01-18T03:27:57.157Z,846.85
2019-01-18T03:28:57.143Z,846.85
2019-01-18T03:29:57.128Z,846.85
2019-01-18T03:30:57.123Z,846.82
2019-01-18T03:31:57.158Z,846.84
2019-01-18T03:32:57.097Z,846.84
2019-01-18T03:33:57.095Z,846.83
2019-01-18T03:34:57.072Z,846.86
2019-01-18T03:35:57.061Z,846.85
2019-01-18T03:36:57.058Z,846.89
2019-01-18T03:37:57.089Z,846.90
2019-01-18T03:38:57.031Z,846.89
2019-01-18T03:39:57.023Z,846.85
2019-01-18T03:40:57.010Z,846.84
2019-01-18T03:41:57.003Z,846.91
2019-01-18T03:42:57.001Z,846.95
2019-01-18T03:43:57.017Z,847.01
2019-01-18T03:44:56.962Z,847.02
2019-01-18T03:45:56.956Z,847.00
2019-01-18T03:46:56.948Z,847.05
2019-01-18T03:47:56.936Z,847.01
2019-01-18T03:48:56.937Z,847.00
2019-01-18T03:49:56.954Z,847.02
2019-01-18T03:50:56.902Z,847.05
2019-01-18T03:51:56.894Z,847.09
2019-01-18T03:52:56.898Z,847.09
2019-01-18T03:53:56.883Z,847.09
2019-01-18T03:54:56.860Z,847.11
2019-01-18T03:55:56.894Z,847.13
2019-01-18T03:56:56.838Z,847.12
2019-01-18T03:57:56.828Z,847.11
2019-01-18T03:58:56.846Z,847.10
2019-01-18T03:59:56.823Z,847.06
2019-01-18T04:00:56.805Z,847.04
2019-01-18T04:01:56.846Z,847.05
2019-01-18T04:02:56.796Z,847.01
2019-01-18T04:03:56.770Z,847.03
2019-01-18T04:04:56.769Z,847.04
2019-01-18T04:05:56.745Z,847.01
2019-01-18T04:06:56.749Z,847.04
2019-01-18T04:07:56.761Z,847.05
2019-01-18T04:08:56.715Z,847.05
2019-01-18T04:09:56.712Z,847.01
2019-01-18T04:10:56.701Z,846.96
2019-01-18T04:11:56.686Z,846.97
2019-01-18T04:12:56.676Z,846.99
2019-01-18T04:13:56.710Z,846.93
2019-01-18T04:14:56.650Z,846.88
2019-01-18T04:15:56.654Z,846.89
2019-01-18T04:16:56.643Z,846.87
2019-01-18T04:17:56.626Z,846.80
2019-01-18T04:18:56.610Z,846.80
2019-01-18T04:19:56.646Z,846.81
2019-01-18T04:20:56.592Z,846.79
2019-01-18T04:21:56.581Z,846.80
2019-01-18T04:22:56.573Z,846.81
2019-01-18T04:23:56.570Z,846.82
2019-01-18T04:24:56.559Z,846.79
2019-01-18T04:25:56.591Z,846.80
2019-01-18T04:26:56.539Z,846.77
2019-01-18T04:27:56.523Z,846.77
2019-01-18T04:28:56.520Z,846.77
2019-01-18T04:29:56.497Z,846.83
2019-01-18T04:30:56.496Z,846.79
2019-01-18T04:31:56.520Z,846.82
2019-01-18T04:32:56.467Z,846.86
2019-01-18T04:33:56.465Z,846.86
2019-01-18T04:34:56.449Z,846.87
2019-01-18T04:35:56.457Z,846.86
2019-01-18T04:36:56.433Z,846.89
2019-01-18T04:37:56.457Z,846.89
2019-01-18T04:38:56.404Z,846.93
2019-01-18T04:39:56.395Z,846.95
2019-01-18T04:40:56.389Z,846.94
2019-01-18T04:41:56.413Z,846.96
2019-01-18T04:42:56.382Z,846.97
2019-01-18T04:43:56.359Z,846.98
2019-01-18T04:44:56.354Z,847.02
2019-01-18T04:45:56.347Z,847.05
2019-01-18T04:46:56.371Z,847.04
2019-01-18T04:47:56.323Z,847.07
2019-01-18T04:48:56.313Z,847.07
2019-01-18T04:49:56.292Z,847.08
2019-01-18T04:50:56.286Z,847.06
2019-01-18T04:51:56.276Z,847.06
2019-01-18T04:52:56.307Z,847.07
2019-01-18T04:53:56.272Z,847.04
2019-01-18T04:54:56.240Z,847.13
2019-01-18T04:55:56.228Z,847.13
2019-01-18T04:56:56.237Z,847.14
2019-01-18T04:57:56.213Z,847.12
2019-01-18T04:58:56.238Z,847.14
2019-01-18T04:59:56.191Z,847.15
2019-01-18T05:00:56.179Z,847.20
2019-01-18T05:01:56.169Z,847.13
2019-01-18T05:02:56.181Z,847.21
2019-01-18T05:03:56.188Z,847.20
2019-01-18T05:04:56.138Z,847.24
2019-01-18T05:05:56.139Z,847.23
2019-01-18T05:06:56.117Z,847.29
2019-01-18T05:07:56.106Z,847.30
2019-01-18T05:08:56.111Z,847.29
2019-01-18T05:09:56.132Z,847.30
2019-01-18T05:10:56.080Z,847.34
2019-01-18T05:11:56.073Z,847.35
2019-01-18T05:12:56.062Z,847.29
2019-01-18T05:13:56.051Z,847.33
2019-01-18T05:14:56.048Z,847.28
2019-01-18T05:15:56.072Z,847.29
2019-01-18T05:16:56.028Z,847.33
2019-01-18T05:17:56.017Z,847.29
2019-01-18T05:18:56.000Z,847.34
2019-01-18T05:19:55.987Z,847.36
2019-01-18T05:20:55.980Z,847.40
2019-01-18T05:21:56.000Z,847.42
2019-01-18T05:22:55.960Z,847.42
2019-01-18T05:23:55.987Z,847.41
2019-01-18T05:24:55.950Z,847.41
2019-01-18T05:25:55.933Z,847.44
2019-01-18T05:26:55.918Z,847.38
2019-01-18T05:27:55.908Z,847.39
2019-01-18T05:28:55.935Z,847.37
2019-01-18T05:29:55.885Z,847.40
2019-01-18T05:30:55.882Z,847.39
2019-01-18T05:31:55.874Z,847.45
2019-01-18T05:32:55.863Z,847.42
2019-01-18T05:33:55.852Z,847.43
2019-01-18T05:34:55.885Z,847.46
2019-01-18T05:35:55.882Z,847.47
2019-01-18T05:36:55.815Z,847.49
2019-01-18T05:37:55.825Z,847.51
2019-01-18T05:38:55.806Z,847.50
2019-01-18T05:39:55.788Z,847.50
2019-01-18T05:40:55.793Z,847.51
2019-01-18T05:41:55.812Z,847.57
2019-01-18T05:42:55.754Z,847.60
2019-01-18T05:43:55.744Z,847.66
2019-01-18T05:44:55.780Z,847.64
2019-01-18T05:45:55.737Z,847.66
2019-01-18T05:46:55.711Z,847.70
2019-01-18T05:47:55.705Z,847.68
2019-01-18T05:48:55.695Z,847.72
2019-01-18T05:49:55.684Z,847.74
2019-01-18T05:50:55.709Z,847.73
2019-01-18T05:51:55.720Z,847.75
2019-01-18T05:52:55.655Z,847.82
2019-01-18T05:53:55.638Z,847.77
2019-01-18T05:54:55.636Z,847.81
2019-01-18T05:55:55.620Z,847.81
2019-01-18T05:56:55.649Z,847.80
2019-01-18T05:57:55.602Z,847.84
2019-01-18T05:58:55.596Z,847.82
2019-01-18T05:59:55.582Z,847.79
2019-01-18T06:00:55.723Z,847.78
2019-01-18T06:01:55.554Z,847.85
2019-01-18T06:02:55.586Z,847.75
2019-01-18T06:03:55.535Z,847.78
2019-01-18T06:04:55.559Z,847.74
2019-01-18T06:05:55.549Z,847.81
2019-01-18T06:06:55.503Z,847.82
2019-01-18T06:07:55.493Z,847.81
2019-01-18T06:08:55.525Z,847.75
2019-01-18T06:09:55.488Z,847.76
2019-01-18T06:10:55.463Z,847.81
2019-01-18T06:11:55.472Z,847.81
2019-01-18T06:12:55.444Z,847.80
2019-01-18T06:13:55.464Z,847.76
2019-01-18T06:14:55.417Z,847.77
2019-01-18T06:15:55.409Z,847.76
2019-01-18T06:16:55.401Z,847.82
2019-01-18T06:17:55.407Z,847.81
2019-01-18T06:18:55.418Z,847.89
2019-01-18T06:19:55.367Z,847.92
2019-01-18T06:20:55.356Z,847.89
2019-01-18T06:21:55.344Z,847.88
2019-01-18T06:22:55.341Z,847.87
2019-01-18T06:23:55.359Z,847.87
2019-01-18T06:24:55.359Z,847.84
2019-01-18T06:25:55.306Z,847.86
2019-01-18T06:26:55.297Z,847.84
2019-01-18T06:27:55.328Z,847.78
2019-01-18T06:28:55.274Z,847.83
2019-01-18T06:29:55.293Z,847.89
2019-01-18T06:31:01.580Z,847.84
2019-01-18T06:31:56.238Z,847.88
2019-01-18T06:32:55.233Z,847.88
2019-01-18T06:33:55.887Z,847.86
2019-01-18T06:34:55.217Z,847.88
2019-01-18T06:35:55.201Z,847.91
2019-01-18T06:36:55.247Z,847.91
2019-01-18T06:37:55.178Z,847.93
2019-01-18T06:38:55.216Z,847.90
2019-01-18T06:39:55.161Z,847.93
2019-01-18T06:40:55.147Z,847.89
2019-01-18T06:41:55.136Z,847.92
2019-01-18T06:42:55.185Z,847.91
2019-01-18T06:43:55.113Z,847.96
2019-01-18T06:44:55.103Z,847.97
2019-01-18T06:45:55.094Z,847.95
2019-01-18T06:46:55.083Z,847.99
2019-01-18T06:47:55.072Z,848.00
2019-01-18T06:48:55.119Z,847.98
2019-01-18T06:49:55.054Z,848.03
2019-01-18T06:50:55.077Z,847.99
2019-01-18T06:51:55.029Z,847.99
2019-01-18T06:52:55.018Z,848.04
2019-01-18T06:53:55.016Z,848.04
2019-01-18T06:54:55.000Z,848.07
2019-01-18T06:55:55.002Z,848.01
2019-01-18T06:56:55.016Z,848.07
2019-01-18T06:57:54.968Z,848.03
2019-01-18T06:58:54.960Z,848.08
2019-01-18T06:59:54.947Z,848.11
2019-01-18T07:00:54.940Z,848.13
2019-01-18T07:01:54.944Z,848.11
2019-01-18T07:02:54.951Z,848.11
2019-01-18T07:03:54.904Z,848.19
2019-01-18T07:04:54.895Z,848.27
2019-01-18T07:05:54.889Z,848.28
2019-01-18T07:06:54.878Z,848.29
2019-01-18T07:07:54.884Z,848.27
2019-01-18T07:08:54.889Z,848.27
2019-01-18T07:09:54.842Z,848.24
2019-01-18T07:10:54.836Z,848.28
2019-01-18T07:11:54.824Z,848.30
2019-01-18T07:12:54.808Z,848.35
2019-01-18T07:13:54.810Z,848.42
2019-01-18T07:14:54.829Z,848.43
2019-01-18T07:15:54.775Z,848.43
2019-01-18T07:16:54.763Z,848.39
2019-01-18T07:17:54.758Z,848.44
2019-01-18T07:18:54.765Z,848.41
2019-01-18T07:19:54.735Z,848.41
2019-01-18T07:20:54.775Z,848.44
2019-01-18T07:21:54.712Z,848.44
2019-01-18T07:22:54.700Z,848.39
2019-01-18T07:23:54.693Z,848.46
2019-01-18T07:24:54.684Z,848.42
2019-01-18T07:25:54.670Z,848.42
2019-01-18T07:26:54.716Z,848.49
2019-01-18T07:27:54.647Z,848.47
2019-01-18T07:28:54.638Z,848.53
2019-01-18T07:29:54.632Z,848.55
2019-01-18T07:30:54.619Z,848.52
2019-01-18T07:31:54.611Z,848.60
2019-01-18T07:32:54.646Z,848.62
2019-01-18T07:33:54.588Z,848.61
2019-01-18T07:34:54.576Z,848.62
2019-01-18T07:35:54.566Z,848.65
2019-01-18T07:36:54.562Z,848.67
2019-01-18T07:37:54.549Z,848.69
2019-01-18T07:39:00.388Z,848.67
2019-01-18T07:39:55.530Z,848.69
2019-01-18T07:40:54.513Z,848.70
2019-01-18T07:41:54.508Z,848.70
2019-01-18T07:42:54.554Z,848.76
2019-01-18T07:43:54.508Z,848.73
2019-01-18T07:44:54.472Z,848.75
2019-01-18T07:45:54.483Z,848.73
2019-01-18T07:46:54.456Z,848.76
2019-01-18T07:47:54.442Z,848.80
2019-01-18T07:48:54.475Z,848.87
2019-01-18T07:49:54.420Z,848.90
2019-01-18T07:50:54.419Z,848.96
2019-01-18T07:51:54.452Z,849.01
2019-01-18T07:52:54.425Z,849.05
2019-01-18T07:53:54.379Z,848.99
2019-01-18T07:54:54.374Z,848.99
2019-01-18T07:55:54.358Z,849.03
2019-01-18T07:56:54.354Z,849.09
2019-01-18T07:57:54.397Z,849.12
2019-01-18T07:58:54.330Z,849.13
2019-01-18T07:59:54.319Z,849.16
2019-01-18T08:00:54.332Z,849.14
2019-01-18T08:01:54.301Z,849.18
2019-01-18T08:02:54.330Z,849.18
2019-01-18T08:03:54.291Z,849.20
2019-01-18T08:04:54.269Z,849.18
2019-01-18T08:05:54.259Z,849.15
2019-01-18T08:06:54.251Z,849.17
2019-01-18T08:07:54.238Z,849.19
2019-01-18T08:08:54.268Z,849.25
2019-01-18T08:09:54.233Z,849.22
2019-01-18T08:10:54.222Z,849.25
2019-01-18T08:11:54.198Z,849.24
2019-01-18T08:12:54.230Z,849.27
2019-01-18T08:13:54.198Z,849.27
2019-01-18T08:14:54.169Z,849.22
2019-01-18T08:15:54.162Z,849.25
2019-01-18T08:16:54.170Z,849.25
2019-01-18T08:17:54.189Z,849.29
2019-01-18T08:18:54.126Z,849.29
2019-01-18T08:19:54.115Z,849.29
2019-01-18T08:20:54.123Z,849.31
2019-01-18T08:21:54.102Z,849.34
2019-01-18T08:22:54.084Z,849.33
2019-01-18T08:23:54.113Z,849.32
2019-01-18T08:24:54.069Z,849.33
2019-01-18T08:25:54.070Z,849.36
2019-01-18T08:26:54.043Z,849.33
2019-01-18T08:27:54.045Z,849.35
2019-01-18T08:28:54.027Z,849.35
2019-01-18T08:29:54.050Z,849.34
2019-01-18T08:30:54.047Z,849.34
2019-01-18T08:31:54.022Z,849.37
2019-01-18T08:32:53.986Z,849.36
2019-01-18T08:33:53.976Z,849.30
2019-01-18T08:34:53.997Z,849.36
2019-01-18T08:35:53.955Z,849.39
2019-01-18T08:36:53.989Z,849.33
2019-01-18T08:37:53.931Z,849.34
2019-01-18T08:38:53.934Z,849.37
2019-01-18T08:39:53.914Z,849.36
2019-01-18T08:40:53.936Z,849.32
2019-01-18T08:41:53.897Z,849.36
2019-01-18T08:42:53.918Z,849.36
2019-01-18T08:43:53.912Z,849.39
2019-01-18T08:44:53.863Z,849.31
2019-01-18T08:45:53.889Z,849.30
2019-01-18T08:46:53.861Z,849.31
2019-01-18T08:47:53.839Z,849.25
2019-01-18T08:48:53.861Z,849.27
2019-01-18T08:49:53.813Z,849.23
2019-01-18T08:50:53.801Z,849.24
2019-01-18T08:51:53.795Z,849.24
2019-01-18T08:52:53.804Z,849.25
2019-01-18T08:53:53.768Z,849.25
2019-01-18T08:54:53.811Z,849.29
2019-01-18T08:55:53.758Z,849.28
2019-01-18T08:56:53.783Z,849.28
2019-01-18T08:57:53.747Z,849.27
2019-01-18T08:58:53.724Z,849.25
2019-01-18T08:59:53.709Z,849.18
2019-01-18T09:00:53.709Z,849.24
2019-01-18T09:01:53.687Z,849.26
2019-01-18T09:02:53.719Z,849.26
2019-01-18T09:03:53.699Z,849.29
2019-01-18T09:04:53.660Z,849.23
2019-01-18T09:05:53.645Z,849.26
2019-01-18T09:06:53.636Z,849.29
2019-01-18T09:07:53.633Z,849.23
2019-01-18T09:08:53.701Z,849.27
2019-01-18T09:09:53.614Z,849.22
2019-01-18T09:10:53.603Z,849.20
2019-01-18T09:11:53.586Z,849.26
2019-01-18T09:12:53.577Z,849.24
2019-01-18T09:13:53.590Z,849.24
2019-01-18T09:14:53.608Z,849.26
2019-01-18T09:15:53.543Z,849.27
2019-01-18T09:16:53.537Z,849.33
2019-01-18T09:17:53.575Z,849.34
2019-01-18T09:18:53.519Z,849.35
2019-01-18T09:19:53.514Z,849.31
2019-01-18T09:20:53.542Z,849.31
2019-01-18T09:21:53.481Z,849.34
2019-01-18T09:22:53.502Z,849.31
2019-01-18T09:23:53.515Z,849.31
2019-01-18T09:24:53.458Z,849.30
2019-01-18T09:25:53.445Z,849.41
2019-01-18T09:26:53.465Z,849.42
2019-01-18T09:27:53.427Z,849.37
2019-01-18T09:28:53.423Z,849.47
2019-01-18T09:29:53.471Z,849.42
2019-01-18T09:30:53.398Z,849.46
2019-01-18T09:31:53.393Z,849.40
2019-01-18T09:32:53.384Z,849.43
2019-01-18T09:33:53.374Z,849.45
2019-01-18T09:34:53.381Z,849.45
2019-01-18T09:35:53.517Z,849.47
2019-01-18T09:36:53.346Z,849.49
2019-01-18T09:37:53.339Z,849.48
2019-01-18T09:38:53.355Z,849.58
2019-01-18T09:39:53.310Z,849.56
2019-01-18T09:40:53.355Z,849.58
2019-01-18T09:41:53.300Z,849.57
2019-01-18T09:42:53.295Z,849.60
2019-01-18T09:43:53.806Z,849.59
2019-01-18T09:44:53.255Z,849.57
2019-01-18T09:45:53.276Z,849.61
2019-01-18T09:46:53.275Z,849.60
2019-01-18T09:47:53.235Z,849.63
2019-01-18T09:48:53.224Z,849.61
2019-01-18T09:49:53.204Z,849.58
2019-01-18T09:50:53.187Z,849.63
2019-01-18T09:51:53.175Z,849.62
2019-01-18T09:52:53.208Z,849.64
2019-01-18T09:53:53.179Z,849.59
2019-01-18T09:54:53.144Z,849.64
2019-01-18T09:55:53.145Z,849.69
2019-01-18T09:56:53.131Z,849.64
2019-01-18T09:57:53.111Z,849.67
2019-01-18T09:58:53.150Z,849.63
2019-01-18T09:59:53.267Z,849.62
2019-01-18T10:00:53.079Z,849.69
2019-01-18T10:01:53.109Z,849.62
2019-01-18T10:02:53.068Z,849.62
2019-01-18T10:03:53.056Z,849.63
2019-01-18T10:04:53.042Z,849.58
2019-01-18T10:05:53.212Z,849.60
2019-01-18T10:06:53.062Z,849.61
2019-01-18T10:07:53.009Z,849.59
2019-01-18T10:08:53.013Z,849.56
2019-01-18T10:09:52.992Z,849.60
2019-01-18T10:10:52.981Z,849.62
2019-01-18T10:11:53.178Z,849.63
2019-01-18T10:12:53.006Z,849.58
2019-01-18T10:13:52.947Z,849.49
2019-01-18T10:14:52.939Z,849.53
2019-01-18T10:15:52.926Z,849.49
2019-01-18T10:16:52.918Z,849.50
2019-01-18T10:18:00.391Z,849.48
2019-01-18T10:18:53.928Z,849.49
2019-01-18T10:19:52.884Z,849.56
2019-01-18T10:20:52.987Z,849.51
2019-01-18T10:21:52.861Z,849.50
2019-01-18T10:22:52.855Z,849.49
2019-01-18T10:23:52.877Z,849.55
2019-01-18T10:24:52.871Z,849.50
2019-01-18T10:25:52.818Z,849.50
2019-01-18T10:26:52.805Z,849.49
2019-01-18T10:27:52.811Z,849.50
2019-01-18T10:28:52.791Z,849.47
2019-01-18T10:29:52.771Z,849.38
2019-01-18T10:30:52.813Z,849.44
2019-01-18T10:31:56.248Z,849.53
2019-01-18T10:32:52.767Z,849.52
2019-01-18T10:33:52.730Z,849.48
2019-01-18T10:34:52.719Z,849.53
2019-01-18T10:35:52.711Z,849.46
2019-01-18T10:36:52.748Z,849.53
2019-01-18T10:37:52.687Z,849.53
2019-01-18T10:38:52.702Z,849.52
2019-01-18T10:39:52.667Z,849.50
2019-01-18T10:40:52.656Z,849.53
2019-01-18T10:41:52.669Z,849.52
2019-01-18T10:42:52.692Z,849.54
2019-01-18T10:43:52.627Z,849.56
2019-01-18T10:44:52.637Z,849.53
2019-01-18T10:45:52.605Z,849.57
2019-01-18T10:46:52.594Z,849.53
2019-01-18T10:47:52.628Z,849.45
2019-01-18T10:48:52.574Z,849.48
2019-01-18T10:49:52.580Z,849.44
2019-01-18T10:50:52.554Z,849.44
2019-01-18T10:51:52.542Z,849.51
2019-01-18T10:52:52.532Z,849.44
2019-01-18T10:53:52.565Z,849.45
2019-01-18T10:54:52.515Z,849.38
2019-01-18T10:55:52.518Z,849.37
2019-01-18T10:56:52.490Z,849.38
2019-01-18T10:57:52.502Z,849.37
2019-01-18T10:58:52.486Z,849.41
2019-01-18T10:59:52.502Z,849.32
2019-01-18T11:00:52.451Z,849.30
2019-01-18T11:01:52.463Z,849.29
2019-01-18T11:02:52.429Z,849.27
2019-01-18T11:03:52.432Z,849.30
2019-01-18T11:04:52.410Z,849.24
2019-01-18T11:05:52.453Z,849.22
2019-01-18T11:06:52.392Z,849.25
2019-01-18T11:07:52.377Z,849.19
2019-01-18T11:08:52.372Z,849.15
2019-01-18T11:09:52.382Z,849.18
2019-01-18T11:10:52.349Z,849.15
2019-01-18T11:11:52.400Z,849.09
2019-01-18T11:12:52.326Z,849.13
2019-01-18T11:13:52.316Z,849.10
2019-01-18T11:14:52.308Z,849.09
2019-01-18T11:15:52.320Z,849.06
2019-01-18T11:16:52.287Z,849.02
2019-01-18T11:17:52.315Z,849.00
2019-01-18T11:18:52.266Z,848.98
2019-01-18T11:19:52.259Z,848.97
2019-01-18T11:20:52.245Z,848.96
2019-01-18T11:21:52.252Z,848.98
2019-01-18T11:22:52.225Z,848.93
2019-01-18T11:23:52.248Z,848.94
2019-01-18T11:24:52.204Z,848.93
2019-01-18T11:25:52.188Z,848.93
2019-01-18T11:26:52.184Z,848.88
2019-01-18T11:27:52.188Z,848.88
2019-01-18T11:28:52.200Z,848.84
2019-01-18T11:29:52.149Z,848.86
2019-01-18T11:30:52.142Z,848.85
2019-01-18T11:31:52.126Z,848.86
2019-01-18T11:32:52.117Z,848.83
2019-01-18T11:33:52.156Z,848.83
2019-01-18T11:34:52.097Z,848.83
2019-01-18T11:35:52.089Z,848.85
2019-01-18T11:36:56.423Z,848.78
2019-01-18T11:37:53.108Z,848.81
2019-01-18T11:38:52.057Z,848.83
2019-01-18T11:39:52.054Z,848.71
2019-01-18T11:40:52.040Z,848.76
2019-01-18T11:41:52.023Z,848.78
2019-01-18T11:42:52.017Z,848.78
2019-01-18T11:43:52.045Z,848.73
2019-01-18T11:44:51.992Z,848.77
2019-01-18T11:45:51.988Z,848.77
2019-01-18T11:46:51.983Z,848.78
2019-01-18T11:47:51.957Z,848.74
2019-01-18T11:48:51.987Z,848.77
2019-01-18T11:49:51.977Z,848.78
2019-01-18T11:50:51.925Z,848.76
2019-01-18T11:51:51.915Z,848.69
2019-01-18T11:52:51.913Z,848.73
2019-01-18T11:53:51.896Z,848.75
2019-01-18T11:54:51.886Z,848.69
2019-01-18T11:55:51.919Z,848.70
2019-01-18T11:56:51.865Z,848.66
2019-01-18T11:57:51.853Z,848.64
2019-01-18T11:58:51.861Z,848.67
2019-01-18T11:59:51.843Z,848.64
2019-01-18T12:00:51.819Z,848.64
2019-01-18T12:01:51.857Z,848.62
2019-01-18T12:02:51.807Z,848.61
2019-01-18T12:03:51.784Z,848.58
2019-01-18T12:04:51.797Z,848.56
2019-01-18T12:05:51.773Z,848.53
2019-01-18T12:06:51.756Z,848.47
2019-01-18T12:07:51.809Z,848.44
2019-01-18T12:08:51.739Z,848.36
2019-01-18T12:09:51.723Z,848.40
2019-01-18T12:10:51.731Z,848.39
2019-01-18T12:11:51.704Z,848.38
2019-01-18T12:12:51.697Z,848.41
2019-01-18T12:13:51.721Z,848.37
2019-01-18T12:14:51.676Z,848.39
2019-01-18T12:15:51.665Z,848.35
2019-01-18T12:16:51.669Z,848.32
2019-01-18T12:17:51.645Z,848.37
2019-01-18T12:18:51.672Z,848.37
2019-01-18T12:19:51.619Z,848.35
2019-01-18T12:20:51.611Z,848.32
2019-01-18T12:21:51.615Z,848.31
2019-01-18T12:22:51.588Z,848.36
2019-01-18T12:23:51.577Z,848.36
2019-01-18T12:24:51.613Z,848.37
2019-01-18T12:25:51.565Z,848.36
2019-01-18T12:26:51.549Z,848.35
2019-01-18T12:27:51.567Z,848.32
2019-01-18T12:28:51.527Z,848.38